sensor_id;sensor_type;location;lat;lon;timestamp;P1;durP1;ratioP1;P2;durP2;ratioP2
68176;SDS011;56478;50.982;7.032;2023-04-06T00:01:30;11.23;;;7.82;;
68176;SDS011;56478;50.982;7.032;2023-04-06T00:03:56;9.63;;;7.57;;
68176;SDS011;56478;50.982;7.032;2023-04-06T00:06:22;10.73;;;7.43;;
68176;SDS011;56478;50.982;7.032;2023-04-06T00:08:47;9.85;;;6.85;;
68176;SDS011;56478;50.982;7.032;2023-04-06T00:11:13;15.77;;;7.55;;
68176;SDS011;56478;50.982;7.032;2023-04-06T00:13:38;9.57;;;7.03;;
68176;SDS011;56478;50.982;7.032;2023-04-06T00:16:04;9.57;;;6.80;;
68176;SDS011;56478;50.982;7.032;2023-04-06T00:18:31;11.95;;;7.50;;
68176;SDS011;56478;50.982;7.032;2023-04-06T00:20:57;13.60;;;7.93;;
68176;SDS011;56478;50.982;7.032;2023-04-06T00:23:22;10.65;;;7.32;;
68176;SDS011;56478;50.982;7.032;2023-04-06T00:25:48;10.25;;;8.05;;
68176;SDS011;56478;50.982;7.032;2023-04-06T00:28:14;11.68;;;7.05;;
68176;SDS011;56478;50.982;7.032;2023-04-06T00:30:40;11.07;;;7.45;;
68176;SDS011;56478;50.982;7.032;2023-04-06T00:33:06;10.25;;;7.07;;
68176;SDS011;56478;50.982;7.032;2023-04-06T00:35:32;9.98;;;7.28;;
68176;SDS011;56478;50.982;7.032;2023-04-06T00:37:57;9.95;;;7.55;;
68176;SDS011;56478;50.982;7.032;2023-04-06T00:40:23;10.65;;;7.43;;
68176;SDS011;56478;50.982;7.032;2023-04-06T00:42:49;9.65;;;6.90;;
68176;SDS011;56478;50.982;7.032;2023-04-06T00:45:15;10.15;;;7.45;;
68176;SDS011;56478;50.982;7.032;2023-04-06T00:47:41;11.18;;;7.32;;
68176;SDS011;56478;50.982;7.032;2023-04-06T00:50:06;8.23;;;7.03;;
68176;SDS011;56478;50.982;7.032;2023-04-06T00:52:33;12.35;;;7.35;;
68176;SDS011;56478;50.982;7.032;2023-04-06T00:55:00;11.32;;;7.50;;
68176;SDS011;56478;50.982;7.032;2023-04-06T00:57:25;11.55;;;7.55;;
68176;SDS011;56478;50.982;7.032;2023-04-06T00:59:51;10.07;;;7.15;;
68176;SDS011;56478;50.982;7.032;2023-04-06T01:02:18;12.40;;;7.90;;
68176;SDS011;56478;50.982;7.032;2023-04-06T01:04:43;9.60;;;6.93;;
68176;SDS011;56478;50.982;7.032;2023-04-06T01:07:10;10.43;;;7.15;;
68176;SDS011;56478;50.982;7.032;2023-04-06T01:09:36;11.25;;;7.45;;
68176;SDS011;56478;50.982;7.032;2023-04-06T01:12:01;9.15;;;7.03;;
68176;SDS011;56478;50.982;7.032;2023-04-06T01:14:28;11.10;;;7.07;;
68176;SDS011;56478;50.982;7.032;2023-04-06T01:16:57;8.77;;;6.70;;
68176;SDS011;56478;50.982;7.032;2023-04-06T01:19:25;11.55;;;7.15;;
68176;SDS011;56478;50.982;7.032;2023-04-06T01:21:51;11.68;;;6.65;;
68176;SDS011;56478;50.982;7.032;2023-04-06T01:24:18;11.18;;;7.22;;
68176;SDS011;56478;50.982;7.032;2023-04-06T01:26:45;9.95;;;6.45;;
68176;SDS011;56478;50.982;7.032;2023-04-06T01:29:11;11.05;;;7.18;;
68176;SDS011;56478;50.982;7.032;2023-04-06T01:31:37;8.63;;;6.60;;
68176;SDS011;56478;50.982;7.032;2023-04-06T01:34:03;9.77;;;7.32;;
68176;SDS011;56478;50.982;7.032;2023-04-06T01:36:29;11.88;;;7.28;;
68176;SDS011;56478;50.982;7.032;2023-04-06T01:38:54;10.40;;;7.00;;
68176;SDS011;56478;50.982;7.032;2023-04-06T01:41:20;11.27;;;7.53;;
68176;SDS011;56478;50.982;7.032;2023-04-06T01:43:46;9.85;;;7.60;;
68176;SDS011;56478;50.982;7.032;2023-04-06T01:46:12;9.68;;;7.18;;
68176;SDS011;56478;50.982;7.032;2023-04-06T01:48:38;8.57;;;7.03;;
68176;SDS011;56478;50.982;7.032;2023-04-06T01:51:04;13.80;;;6.75;;
68176;SDS011;56478;50.982;7.032;2023-04-06T01:53:29;11.77;;;7.40;;
68176;SDS011;56478;50.982;7.032;2023-04-06T01:55:55;10.55;;;7.13;;
68176;SDS011;56478;50.982;7.032;2023-04-06T01:58:21;17.67;;;7.80;;
68176;SDS011;56478;50.982;7.032;2023-04-06T02:00:46;10.27;;;7.47;;
68176;SDS011;56478;50.982;7.032;2023-04-06T02:03:12;11.55;;;7.80;;
68176;SDS011;56478;50.982;7.032;2023-04-06T02:05:39;9.82;;;7.25;;
68176;SDS011;56478;50.982;7.032;2023-04-06T02:08:05;13.38;;;7.68;;
68176;SDS011;56478;50.982;7.032;2023-04-06T02:10:31;11.45;;;7.85;;
68176;SDS011;56478;50.982;7.032;2023-04-06T02:12:57;10.30;;;7.32;;
68176;SDS011;56478;50.982;7.032;2023-04-06T02:15:23;11.20;;;7.13;;
68176;SDS011;56478;50.982;7.032;2023-04-06T02:17:49;12.80;;;7.78;;
68176;SDS011;56478;50.982;7.032;2023-04-06T02:20:14;12.27;;;7.80;;
68176;SDS011;56478;50.982;7.032;2023-04-06T02:22:40;12.60;;;7.75;;
68176;SDS011;56478;50.982;7.032;2023-04-06T02:25:05;13.68;;;8.02;;
68176;SDS011;56478;50.982;7.032;2023-04-06T02:27:31;11.95;;;7.57;;
68176;SDS011;56478;50.982;7.032;2023-04-06T02:29:57;13.65;;;8.45;;
68176;SDS011;56478;50.982;7.032;2023-04-06T02:32:23;12.00;;;7.85;;
68176;SDS011;56478;50.982;7.032;2023-04-06T02:34:49;12.23;;;7.38;;
68176;SDS011;56478;50.982;7.032;2023-04-06T02:37:14;11.70;;;7.63;;
68176;SDS011;56478;50.982;7.032;2023-04-06T02:39:40;11.30;;;7.88;;
68176;SDS011;56478;50.982;7.032;2023-04-06T02:42:06;13.00;;;7.65;;
68176;SDS011;56478;50.982;7.032;2023-04-06T02:44:33;10.27;;;7.78;;
68176;SDS011;56478;50.982;7.032;2023-04-06T02:46:59;11.48;;;7.65;;
68176;SDS011;56478;50.982;7.032;2023-04-06T02:49:25;11.35;;;7.65;;
68176;SDS011;56478;50.982;7.032;2023-04-06T02:51:50;12.93;;;8.18;;
68176;SDS011;56478;50.982;7.032;2023-04-06T02:54:16;10.50;;;7.80;;
68176;SDS011;56478;50.982;7.032;2023-04-06T02:56:41;11.10;;;7.90;;
68176;SDS011;56478;50.982;7.032;2023-04-06T02:59:07;11.43;;;7.95;;
68176;SDS011;56478;50.982;7.032;2023-04-06T03:01:32;11.20;;;7.50;;
68176;SDS011;56478;50.982;7.032;2023-04-06T03:03:58;12.00;;;7.78;;
68176;SDS011;56478;50.982;7.032;2023-04-06T03:06:23;11.05;;;7.22;;
68176;SDS011;56478;50.982;7.032;2023-04-06T03:08:49;9.80;;;7.18;;
68176;SDS011;56478;50.982;7.032;2023-04-06T03:11:15;11.27;;;7.65;;
68176;SDS011;56478;50.982;7.032;2023-04-06T03:13:40;12.63;;;7.55;;
68176;SDS011;56478;50.982;7.032;2023-04-06T03:16:06;9.32;;;7.30;;
68176;SDS011;56478;50.982;7.032;2023-04-06T03:18:32;13.98;;;7.75;;
68176;SDS011;56478;50.982;7.032;2023-04-06T03:20:58;12.43;;;7.38;;
68176;SDS011;56478;50.982;7.032;2023-04-06T03:23:25;10.68;;;7.63;;
68176;SDS011;56478;50.982;7.032;2023-04-06T03:25:51;10.75;;;7.90;;
68176;SDS011;56478;50.982;7.032;2023-04-06T03:28:16;9.45;;;6.90;;
68176;SDS011;56478;50.982;7.032;2023-04-06T03:30:42;10.85;;;7.18;;
68176;SDS011;56478;50.982;7.032;2023-04-06T03:33:07;11.90;;;7.57;;
68176;SDS011;56478;50.982;7.032;2023-04-06T03:35:33;10.88;;;7.25;;
68176;SDS011;56478;50.982;7.032;2023-04-06T03:37:58;10.70;;;7.53;;
68176;SDS011;56478;50.982;7.032;2023-04-06T03:40:24;11.20;;;7.72;;
68176;SDS011;56478;50.982;7.032;2023-04-06T03:42:50;11.75;;;8.10;;
68176;SDS011;56478;50.982;7.032;2023-04-06T03:45:15;12.20;;;8.02;;
68176;SDS011;56478;50.982;7.032;2023-04-06T03:47:41;10.32;;;7.57;;
68176;SDS011;56478;50.982;7.032;2023-04-06T03:50:07;10.00;;;6.90;;
68176;SDS011;56478;50.982;7.032;2023-04-06T03:52:34;9.32;;;7.07;;
68176;SDS011;56478;50.982;7.032;2023-04-06T03:55:00;12.52;;;7.47;;
68176;SDS011;56478;50.982;7.032;2023-04-06T03:57:25;8.75;;;7.03;;
68176;SDS011;56478;50.982;7.032;2023-04-06T03:59:51;13.25;;;7.70;;
68176;SDS011;56478;50.982;7.032;2023-04-06T04:02:16;10.40;;;7.75;;
68176;SDS011;56478;50.982;7.032;2023-04-06T04:04:42;11.43;;;7.60;;
68176;SDS011;56478;50.982;7.032;2023-04-06T04:07:07;12.10;;;7.53;;
68176;SDS011;56478;50.982;7.032;2023-04-06T04:09:33;13.25;;;7.28;;
68176;SDS011;56478;50.982;7.032;2023-04-06T04:11:58;13.30;;;8.02;;
68176;SDS011;56478;50.982;7.032;2023-04-06T04:14:24;9.85;;;7.70;;
68176;SDS011;56478;50.982;7.032;2023-04-06T04:16:50;11.00;;;7.63;;
68176;SDS011;56478;50.982;7.032;2023-04-06T04:19:16;11.55;;;7.80;;
68176;SDS011;56478;50.982;7.032;2023-04-06T04:21:42;12.07;;;7.45;;
68176;SDS011;56478;50.982;7.032;2023-04-06T04:24:11;13.45;;;8.15;;
68176;SDS011;56478;50.982;7.032;2023-04-06T04:26:38;12.88;;;7.88;;
68176;SDS011;56478;50.982;7.032;2023-04-06T04:29:03;12.57;;;7.63;;
68176;SDS011;56478;50.982;7.032;2023-04-06T04:31:29;11.68;;;7.95;;
68176;SDS011;56478;50.982;7.032;2023-04-06T04:33:55;10.90;;;7.90;;
68176;SDS011;56478;50.982;7.032;2023-04-06T04:36:20;12.63;;;8.40;;
68176;SDS011;56478;50.982;7.032;2023-04-06T04:38:46;12.95;;;7.97;;
68176;SDS011;56478;50.982;7.032;2023-04-06T04:41:12;11.27;;;8.00;;
68176;SDS011;56478;50.982;7.032;2023-04-06T04:43:37;13.70;;;8.30;;
68176;SDS011;56478;50.982;7.032;2023-04-06T04:46:04;11.07;;;7.72;;
68176;SDS011;56478;50.982;7.032;2023-04-06T04:48:30;11.85;;;7.95;;
68176;SDS011;56478;50.982;7.032;2023-04-06T04:50:55;12.10;;;8.20;;
68176;SDS011;56478;50.982;7.032;2023-04-06T04:53:21;10.40;;;7.40;;
68176;SDS011;56478;50.982;7.032;2023-04-06T04:55:47;11.43;;;7.75;;
68176;SDS011;56478;50.982;7.032;2023-04-06T04:58:12;13.32;;;7.50;;
68176;SDS011;56478;50.982;7.032;2023-04-06T05:00:42;12.45;;;8.02;;
68176;SDS011;56478;50.982;7.032;2023-04-06T05:03:08;12.88;;;7.57;;
68176;SDS011;56478;50.982;7.032;2023-04-06T05:05:34;11.32;;;7.82;;
68176;SDS011;56478;50.982;7.032;2023-04-06T05:08:01;13.65;;;7.82;;
68176;SDS011;56478;50.982;7.032;2023-04-06T05:10:26;12.95;;;8.30;;
68176;SDS011;56478;50.982;7.032;2023-04-06T05:12:52;11.25;;;7.60;;
68176;SDS011;56478;50.982;7.032;2023-04-06T05:15:18;12.52;;;7.50;;
68176;SDS011;56478;50.982;7.032;2023-04-06T05:17:43;12.10;;;7.28;;
68176;SDS011;56478;50.982;7.032;2023-04-06T05:20:09;10.88;;;7.35;;
68176;SDS011;56478;50.982;7.032;2023-04-06T05:22:35;9.80;;;7.15;;
68176;SDS011;56478;50.982;7.032;2023-04-06T05:25:02;11.52;;;7.32;;
68176;SDS011;56478;50.982;7.032;2023-04-06T05:27:28;10.10;;;7.15;;
68176;SDS011;56478;50.982;7.032;2023-04-06T05:29:54;13.02;;;7.32;;
68176;SDS011;56478;50.982;7.032;2023-04-06T05:32:19;10.45;;;7.07;;
68176;SDS011;56478;50.982;7.032;2023-04-06T05:34:48;10.30;;;6.57;;
68176;SDS011;56478;50.982;7.032;2023-04-06T05:37:14;8.45;;;6.65;;
68176;SDS011;56478;50.982;7.032;2023-04-06T05:39:41;11.82;;;6.38;;
68176;SDS011;56478;50.982;7.032;2023-04-06T05:42:06;8.77;;;6.30;;
68176;SDS011;56478;50.982;7.032;2023-04-06T05:44:32;8.43;;;6.32;;
68176;SDS011;56478;50.982;7.032;2023-04-06T05:46:58;10.60;;;7.35;;
68176;SDS011;56478;50.982;7.032;2023-04-06T05:49:23;7.78;;;6.47;;
68176;SDS011;56478;50.982;7.032;2023-04-06T05:51:49;10.20;;;6.53;;
68176;SDS011;56478;50.982;7.032;2023-04-06T05:54:15;11.40;;;7.00;;
68176;SDS011;56478;50.982;7.032;2023-04-06T05:56:40;9.45;;;6.38;;
68176;SDS011;56478;50.982;7.032;2023-04-06T05:59:06;11.45;;;6.65;;
68176;SDS011;56478;50.982;7.032;2023-04-06T06:01:32;13.75;;;6.63;;
68176;SDS011;56478;50.982;7.032;2023-04-06T06:04:00;11.60;;;7.22;;
68176;SDS011;56478;50.982;7.032;2023-04-06T06:06:27;9.20;;;6.72;;
68176;SDS011;56478;50.982;7.032;2023-04-06T06:08:55;8.00;;;6.25;;
68176;SDS011;56478;50.982;7.032;2023-04-06T06:11:23;8.32;;;6.30;;
68176;SDS011;56478;50.982;7.032;2023-04-06T06:13:49;8.43;;;6.35;;
68176;SDS011;56478;50.982;7.032;2023-04-06T06:16:15;7.45;;;5.60;;
68176;SDS011;56478;50.982;7.032;2023-04-06T06:18:42;10.45;;;5.47;;
68176;SDS011;56478;50.982;7.032;2023-04-06T06:21:08;9.32;;;5.68;;
68176;SDS011;56478;50.982;7.032;2023-04-06T06:23:34;8.88;;;5.85;;
68176;SDS011;56478;50.982;7.032;2023-04-06T06:25:59;6.25;;;5.22;;
68176;SDS011;56478;50.982;7.032;2023-04-06T06:28:26;9.45;;;5.50;;
68176;SDS011;56478;50.982;7.032;2023-04-06T06:30:52;9.40;;;5.97;;
68176;SDS011;56478;50.982;7.032;2023-04-06T06:33:17;9.60;;;6.00;;
68176;SDS011;56478;50.982;7.032;2023-04-06T06:35:43;11.65;;;5.63;;
68176;SDS011;56478;50.982;7.032;2023-04-06T06:38:09;8.15;;;5.97;;
68176;SDS011;56478;50.982;7.032;2023-04-06T06:40:34;10.95;;;5.53;;
68176;SDS011;56478;50.982;7.032;2023-04-06T06:43:00;6.72;;;5.72;;
68176;SDS011;56478;50.982;7.032;2023-04-06T06:45:25;7.22;;;5.75;;
68176;SDS011;56478;50.982;7.032;2023-04-06T06:47:51;6.40;;;5.80;;
68176;SDS011;56478;50.982;7.032;2023-04-06T06:50:17;10.40;;;5.75;;
68176;SDS011;56478;50.982;7.032;2023-04-06T06:52:42;8.70;;;6.10;;
68176;SDS011;56478;50.982;7.032;2023-04-06T06:55:09;5.97;;;5.38;;
68176;SDS011;56478;50.982;7.032;2023-04-06T06:57:35;8.43;;;5.80;;
68176;SDS011;56478;50.982;7.032;2023-04-06T07:00:01;6.43;;;5.38;;
68176;SDS011;56478;50.982;7.032;2023-04-06T07:02:27;7.25;;;5.90;;
68176;SDS011;56478;50.982;7.032;2023-04-06T07:04:52;13.25;;;6.40;;
68176;SDS011;56478;50.982;7.032;2023-04-06T07:07:18;6.53;;;5.47;;
68176;SDS011;56478;50.982;7.032;2023-04-06T07:09:43;10.10;;;6.03;;
68176;SDS011;56478;50.982;7.032;2023-04-06T07:12:09;8.07;;;5.95;;
68176;SDS011;56478;50.982;7.032;2023-04-06T07:14:35;6.97;;;5.70;;
68176;SDS011;56478;50.982;7.032;2023-04-06T07:17:01;10.23;;;5.70;;
68176;SDS011;56478;50.982;7.032;2023-04-06T07:19:27;9.15;;;5.88;;
68176;SDS011;56478;50.982;7.032;2023-04-06T07:21:52;9.05;;;5.57;;
68176;SDS011;56478;50.982;7.032;2023-04-06T07:24:18;8.38;;;6.18;;
68176;SDS011;56478;50.982;7.032;2023-04-06T07:26:44;6.65;;;5.90;;
68176;SDS011;56478;50.982;7.032;2023-04-06T07:29:09;8.35;;;5.90;;
68176;SDS011;56478;50.982;7.032;2023-04-06T07:31:35;10.13;;;6.10;;
68176;SDS011;56478;50.982;7.032;2023-04-06T07:34:01;7.90;;;6.28;;
68176;SDS011;56478;50.982;7.032;2023-04-06T07:36:26;7.00;;;6.32;;
68176;SDS011;56478;50.982;7.032;2023-04-06T07:38:52;9.82;;;6.07;;
68176;SDS011;56478;50.982;7.032;2023-04-06T07:41:18;6.80;;;6.10;;
68176;SDS011;56478;50.982;7.032;2023-04-06T07:43:43;8.20;;;6.47;;
68176;SDS011;56478;50.982;7.032;2023-04-06T07:46:09;8.65;;;6.22;;
68176;SDS011;56478;50.982;7.032;2023-04-06T07:48:35;6.88;;;5.97;;
68176;SDS011;56478;50.982;7.032;2023-04-06T07:51:03;7.38;;;6.43;;
68176;SDS011;56478;50.982;7.032;2023-04-06T07:53:29;8.23;;;6.28;;
68176;SDS011;56478;50.982;7.032;2023-04-06T07:55:55;7.28;;;6.15;;
68176;SDS011;56478;50.982;7.032;2023-04-06T07:58:22;7.88;;;6.40;;
68176;SDS011;56478;50.982;7.032;2023-04-06T08:00:48;8.55;;;6.30;;
68176;SDS011;56478;50.982;7.032;2023-04-06T08:03:13;9.73;;;6.30;;
68176;SDS011;56478;50.982;7.032;2023-04-06T08:05:39;7.50;;;6.80;;
68176;SDS011;56478;50.982;7.032;2023-04-06T08:08:05;7.28;;;6.57;;
68176;SDS011;56478;50.982;7.032;2023-04-06T08:10:30;7.03;;;6.15;;
68176;SDS011;56478;50.982;7.032;2023-04-06T08:12:56;10.25;;;6.22;;
68176;SDS011;56478;50.982;7.032;2023-04-06T08:15:22;7.90;;;6.53;;
68176;SDS011;56478;50.982;7.032;2023-04-06T08:17:47;11.45;;;6.60;;
68176;SDS011;56478;50.982;7.032;2023-04-06T08:20:13;7.75;;;6.60;;
68176;SDS011;56478;50.982;7.032;2023-04-06T08:22:39;11.68;;;7.28;;
68176;SDS011;56478;50.982;7.032;2023-04-06T08:25:05;9.90;;;6.82;;
68176;SDS011;56478;50.982;7.032;2023-04-06T08:27:30;9.52;;;6.38;;
68176;SDS011;56478;50.982;7.032;2023-04-06T08:29:56;7.40;;;6.45;;
68176;SDS011;56478;50.982;7.032;2023-04-06T08:32:22;8.25;;;6.38;;
68176;SDS011;56478;50.982;7.032;2023-04-06T08:34:47;9.77;;;6.82;;
68176;SDS011;56478;50.982;7.032;2023-04-06T08:37:13;10.43;;;7.05;;
68176;SDS011;56478;50.982;7.032;2023-04-06T08:39:38;8.93;;;7.20;;
68176;SDS011;56478;50.982;7.032;2023-04-06T08:42:04;12.88;;;7.30;;
68176;SDS011;56478;50.982;7.032;2023-04-06T08:44:39;8.82;;;7.63;;
68176;SDS011;56478;50.982;7.032;2023-04-06T08:47:06;9.15;;;6.82;;
68176;SDS011;56478;50.982;7.032;2023-04-06T08:49:31;10.27;;;7.00;;
68176;SDS011;56478;50.982;7.032;2023-04-06T08:51:59;7.65;;;6.80;;
68176;SDS011;56478;50.982;7.032;2023-04-06T08:54:26;8.10;;;7.30;;
68176;SDS011;56478;50.982;7.032;2023-04-06T08:56:52;8.90;;;7.30;;
68176;SDS011;56478;50.982;7.032;2023-04-06T08:59:18;11.25;;;7.25;;
68176;SDS011;56478;50.982;7.032;2023-04-06T09:01:44;7.88;;;6.93;;
68176;SDS011;56478;50.982;7.032;2023-04-06T09:04:11;8.82;;;7.93;;
68176;SDS011;56478;50.982;7.032;2023-04-06T09:06:37;8.68;;;7.68;;
68176;SDS011;56478;50.982;7.032;2023-04-06T09:09:03;9.85;;;7.57;;
68176;SDS011;56478;50.982;7.032;2023-04-06T09:11:29;11.82;;;7.78;;
68176;SDS011;56478;50.982;7.032;2023-04-06T09:14:15;11.60;;;8.40;;
68176;SDS011;56478;50.982;7.032;2023-04-06T09:16:43;10.57;;;7.90;;
68176;SDS011;56478;50.982;7.032;2023-04-06T09:19:12;11.38;;;8.30;;
68176;SDS011;56478;50.982;7.032;2023-04-06T09:21:38;12.43;;;8.18;;
68176;SDS011;56478;50.982;7.032;2023-04-06T09:24:06;10.10;;;8.48;;
68176;SDS011;56478;50.982;7.032;2023-04-06T09:26:44;9.95;;;8.25;;
68176;SDS011;56478;50.982;7.032;2023-04-06T09:29:21;10.77;;;8.18;;
68176;SDS011;56478;50.982;7.032;2023-04-06T09:31:47;11.43;;;8.75;;
68176;SDS011;56478;50.982;7.032;2023-04-06T09:34:20;10.45;;;8.25;;
68176;SDS011;56478;50.982;7.032;2023-04-06T09:36:47;13.50;;;8.30;;
68176;SDS011;56478;50.982;7.032;2023-04-06T09:39:13;15.77;;;9.10;;
68176;SDS011;56478;50.982;7.032;2023-04-06T09:41:39;12.52;;;8.70;;
68176;SDS011;56478;50.982;7.032;2023-04-06T09:44:06;12.15;;;8.95;;
68176;SDS011;56478;50.982;7.032;2023-04-06T09:46:34;13.27;;;8.77;;
68176;SDS011;56478;50.982;7.032;2023-04-06T09:49:07;11.93;;;8.30;;
68176;SDS011;56478;50.982;7.032;2023-04-06T09:51:38;14.13;;;8.95;;
68176;SDS011;56478;50.982;7.032;2023-04-06T09:54:06;11.00;;;8.50;;
68176;SDS011;56478;50.982;7.032;2023-04-06T09:59:52;18.05;;;8.77;;
68176;SDS011;56478;50.982;7.032;2023-04-06T10:05:41;11.48;;;8.68;;
68176;SDS011;56478;50.982;7.032;2023-04-06T10:08:13;11.40;;;8.65;;
68176;SDS011;56478;50.982;7.032;2023-04-06T10:10:41;12.32;;;8.52;;
68176;SDS011;56478;50.982;7.032;2023-04-06T10:13:08;15.77;;;9.02;;
68176;SDS011;56478;50.982;7.032;2023-04-06T10:15:36;13.52;;;8.90;;
68176;SDS011;56478;50.982;7.032;2023-04-06T10:18:03;10.90;;;8.70;;
68176;SDS011;56478;50.982;7.032;2023-04-06T10:23:08;18.00;;;8.43;;
68176;SDS011;56478;50.982;7.032;2023-04-06T10:25:51;18.20;;;8.82;;
68176;SDS011;56478;50.982;7.032;2023-04-06T10:28:20;11.18;;;8.63;;
68176;SDS011;56478;50.982;7.032;2023-04-06T10:30:46;12.63;;;9.18;;
68176;SDS011;56478;50.982;7.032;2023-04-06T10:33:12;11.82;;;8.38;;
68176;SDS011;56478;50.982;7.032;2023-04-06T10:35:39;13.70;;;8.88;;
68176;SDS011;56478;50.982;7.032;2023-04-06T10:38:05;12.15;;;8.63;;
68176;SDS011;56478;50.982;7.032;2023-04-06T10:40:31;14.55;;;9.35;;
68176;SDS011;56478;50.982;7.032;2023-04-06T10:43:06;14.23;;;8.93;;
68176;SDS011;56478;50.982;7.032;2023-04-06T10:45:36;13.52;;;9.05;;
68176;SDS011;56478;50.982;7.032;2023-04-06T10:48:14;16.60;;;11.27;;
68176;SDS011;56478;50.982;7.032;2023-04-06T10:50:47;12.20;;;8.60;;
68176;SDS011;56478;50.982;7.032;2023-04-06T10:53:21;11.32;;;9.27;;
68176;SDS011;56478;50.982;7.032;2023-04-06T10:55:51;17.05;;;8.68;;
68176;SDS011;56478;50.982;7.032;2023-04-06T10:58:19;12.13;;;9.07;;
68176;SDS011;56478;50.982;7.032;2023-04-06T11:00:48;22.23;;;9.25;;
68176;SDS011;56478;50.982;7.032;2023-04-06T11:03:15;12.35;;;8.80;;
68176;SDS011;56478;50.982;7.032;2023-04-06T11:05:45;16.42;;;9.10;;
68176;SDS011;56478;50.982;7.032;2023-04-06T11:08:21;13.05;;;8.75;;
68176;SDS011;56478;50.982;7.032;2023-04-06T11:10:47;15.00;;;9.55;;
68176;SDS011;56478;50.982;7.032;2023-04-06T11:13:14;16.58;;;9.50;;
68176;SDS011;56478;50.982;7.032;2023-04-06T11:15:40;12.32;;;9.27;;
68176;SDS011;56478;50.982;7.032;2023-04-06T11:18:06;13.68;;;9.45;;
68176;SDS011;56478;50.982;7.032;2023-04-06T11:20:31;11.55;;;9.00;;
68176;SDS011;56478;50.982;7.032;2023-04-06T11:22:57;14.02;;;8.77;;
68176;SDS011;56478;50.982;7.032;2023-04-06T11:25:24;13.20;;;8.63;;
68176;SDS011;56478;50.982;7.032;2023-04-06T11:27:51;15.70;;;9.80;;
68176;SDS011;56478;50.982;7.032;2023-04-06T11:30:17;12.88;;;9.25;;
68176;SDS011;56478;50.982;7.032;2023-04-06T11:32:43;15.35;;;9.23;;
68176;SDS011;56478;50.982;7.032;2023-04-06T11:35:11;15.18;;;9.57;;
68176;SDS011;56478;50.982;7.032;2023-04-06T11:37:49;13.98;;;9.73;;
68176;SDS011;56478;50.982;7.032;2023-04-06T11:40:15;15.18;;;8.85;;
68176;SDS011;56478;50.982;7.032;2023-04-06T11:42:45;13.68;;;9.18;;
68176;SDS011;56478;50.982;7.032;2023-04-06T11:45:17;14.32;;;9.00;;
68176;SDS011;56478;50.982;7.032;2023-04-06T11:47:43;13.88;;;9.13;;
68176;SDS011;56478;50.982;7.032;2023-04-06T11:50:09;13.43;;;8.60;;
68176;SDS011;56478;50.982;7.032;2023-04-06T11:52:37;15.63;;;9.37;;
68176;SDS011;56478;50.982;7.032;2023-04-06T11:55:13;15.70;;;8.40;;
68176;SDS011;56478;50.982;7.032;2023-04-06T11:57:40;14.48;;;9.00;;
68176;SDS011;56478;50.982;7.032;2023-04-06T12:00:07;13.15;;;8.05;;
68176;SDS011;56478;50.982;7.032;2023-04-06T12:02:37;16.30;;;8.07;;
68176;SDS011;56478;50.982;7.032;2023-04-06T12:05:04;12.82;;;8.65;;
68176;SDS011;56478;50.982;7.032;2023-04-06T12:07:31;14.20;;;8.82;;
68176;SDS011;56478;50.982;7.032;2023-04-06T12:09:57;11.27;;;8.25;;
68176;SDS011;56478;50.982;7.032;2023-04-06T12:12:23;12.82;;;7.88;;
68176;SDS011;56478;50.982;7.032;2023-04-06T12:14:49;12.93;;;8.43;;
68176;SDS011;56478;50.982;7.032;2023-04-06T12:17:15;14.57;;;8.40;;
68176;SDS011;56478;50.982;7.032;2023-04-06T12:19:40;14.68;;;8.30;;
68176;SDS011;56478;50.982;7.032;2023-04-06T12:22:06;12.88;;;8.07;;
68176;SDS011;56478;50.982;7.032;2023-04-06T12:24:32;15.18;;;8.52;;
68176;SDS011;56478;50.982;7.032;2023-04-06T12:26:57;12.00;;;7.85;;
68176;SDS011;56478;50.982;7.032;2023-04-06T12:29:24;12.25;;;7.80;;
68176;SDS011;56478;50.982;7.032;2023-04-06T12:31:49;13.18;;;7.68;;
68176;SDS011;56478;50.982;7.032;2023-04-06T12:34:16;13.40;;;7.93;;
68176;SDS011;56478;50.982;7.032;2023-04-06T12:36:42;15.02;;;7.28;;
68176;SDS011;56478;50.982;7.032;2023-04-06T12:39:07;20.83;;;7.60;;
68176;SDS011;56478;50.982;7.032;2023-04-06T12:41:33;10.63;;;7.38;;
68176;SDS011;56478;50.982;7.032;2023-04-06T12:43:59;9.45;;;6.93;;
68176;SDS011;56478;50.982;7.032;2023-04-06T12:46:25;11.65;;;7.50;;
68176;SDS011;56478;50.982;7.032;2023-04-06T12:48:52;11.27;;;7.00;;
68176;SDS011;56478;50.982;7.032;2023-04-06T12:51:21;11.73;;;6.80;;
68176;SDS011;56478;50.982;7.032;2023-04-06T12:53:47;11.63;;;7.82;;
68176;SDS011;56478;50.982;7.032;2023-04-06T12:56:15;12.32;;;7.32;;
68176;SDS011;56478;50.982;7.032;2023-04-06T12:58:46;11.43;;;6.82;;
68176;SDS011;56478;50.982;7.032;2023-04-06T13:01:12;11.55;;;7.03;;
68176;SDS011;56478;50.982;7.032;2023-04-06T13:03:38;12.77;;;6.75;;
68176;SDS011;56478;50.982;7.032;2023-04-06T13:06:04;9.02;;;6.40;;
68176;SDS011;56478;50.982;7.032;2023-04-06T13:08:30;9.98;;;6.28;;
68176;SDS011;56478;50.982;7.032;2023-04-06T13:10:56;9.55;;;5.82;;
68176;SDS011;56478;50.982;7.032;2023-04-06T13:13:28;8.75;;;6.00;;
68176;SDS011;56478;50.982;7.032;2023-04-06T13:15:55;9.77;;;6.05;;
68176;SDS011;56478;50.982;7.032;2023-04-06T13:18:31;8.63;;;5.90;;
68176;SDS011;56478;50.982;7.032;2023-04-06T13:20:57;6.18;;;5.57;;
68176;SDS011;56478;50.982;7.032;2023-04-06T13:23:24;8.80;;;6.38;;
68176;SDS011;56478;50.982;7.032;2023-04-06T13:26:00;7.80;;;5.90;;
68176;SDS011;56478;50.982;7.032;2023-04-06T13:28:26;9.25;;;6.07;;
68176;SDS011;56478;50.982;7.032;2023-04-06T13:30:53;8.20;;;6.15;;
68176;SDS011;56478;50.982;7.032;2023-04-06T13:33:19;7.38;;;5.95;;
68176;SDS011;56478;50.982;7.032;2023-04-06T13:35:45;9.63;;;5.78;;
68176;SDS011;56478;50.982;7.032;2023-04-06T13:38:11;8.55;;;6.20;;
68176;SDS011;56478;50.982;7.032;2023-04-06T13:40:40;10.23;;;6.28;;
68176;SDS011;56478;50.982;7.032;2023-04-06T13:43:06;8.73;;;6.35;;
68176;SDS011;56478;50.982;7.032;2023-04-06T13:45:32;7.82;;;5.70;;
68176;SDS011;56478;50.982;7.032;2023-04-06T13:47:58;10.32;;;6.20;;
68176;SDS011;56478;50.982;7.032;2023-04-06T13:50:25;8.07;;;6.13;;
68176;SDS011;56478;50.982;7.032;2023-04-06T13:52:51;10.87;;;6.43;;
68176;SDS011;56478;50.982;7.032;2023-04-06T13:55:17;8.90;;;5.88;;
68176;SDS011;56478;50.982;7.032;2023-04-06T13:57:42;8.07;;;6.07;;
68176;SDS011;56478;50.982;7.032;2023-04-06T14:00:08;8.10;;;6.47;;
68176;SDS011;56478;50.982;7.032;2023-04-06T14:02:36;10.70;;;5.85;;
68176;SDS011;56478;50.982;7.032;2023-04-06T14:05:02;8.32;;;5.68;;
68176;SDS011;56478;50.982;7.032;2023-04-06T14:07:28;6.53;;;4.93;;
68176;SDS011;56478;50.982;7.032;2023-04-06T14:09:54;9.73;;;5.10;;
68176;SDS011;56478;50.982;7.032;2023-04-06T14:12:20;11.95;;;5.43;;
68176;SDS011;56478;50.982;7.032;2023-04-06T14:14:45;9.07;;;5.70;;
68176;SDS011;56478;50.982;7.032;2023-04-06T14:17:11;7.55;;;5.50;;
68176;SDS011;56478;50.982;7.032;2023-04-06T14:19:37;8.23;;;5.85;;
68176;SDS011;56478;50.982;7.032;2023-04-06T14:22:03;9.73;;;5.88;;
68176;SDS011;56478;50.982;7.032;2023-04-06T14:24:29;8.70;;;5.88;;
68176;SDS011;56478;50.982;7.032;2023-04-06T14:26:55;8.68;;;6.78;;
68176;SDS011;56478;50.982;7.032;2023-04-06T14:29:21;9.07;;;6.13;;
68176;SDS011;56478;50.982;7.032;2023-04-06T14:31:47;8.60;;;6.45;;
68176;SDS011;56478;50.982;7.032;2023-04-06T14:34:14;8.23;;;6.10;;
68176;SDS011;56478;50.982;7.032;2023-04-06T14:36:40;9.93;;;6.20;;
68176;SDS011;56478;50.982;7.032;2023-04-06T14:39:06;9.50;;;6.63;;
68176;SDS011;56478;50.982;7.032;2023-04-06T14:41:32;7.55;;;5.95;;
68176;SDS011;56478;50.982;7.032;2023-04-06T14:43:59;8.43;;;6.10;;